• Join FlightAware (Why Join?)
  • Login
  • US Flag 
07:58AM EST


 

Airport Tracker/Info


-or-


 

Live Flight TrackerFlight Track Log ✈ NGF68J ✈ 28-Jun-2013 ✈ KAGC - KDUH

Flight Track Log - Related Links

Times and Time Zones

All times are in EDT time to prevent confusion due to time zone crossing. See the NGF68J flight status page for this flight to view local times or setup timezone preferences in your user account.

Time Position Orientation Groundspeed Altitude Reporting Facility
EDT Latitude Longitude Course Direction KTS MPH feet Rate Location/Type
12:49PM 40.4427 -80.1780 294° West  Level FlightAware Approximate
12:50PM 40.4572 -80.2144 303° West  Level FlightAware Approximate
12:51PM 40.4733 -80.2497 298° West  Level FlightAware Approximate
12:52PM 40.4880 -80.2862 298° West  Level FlightAware Approximate
12:53PM 40.5027 -80.3226 298° West  Level FlightAware Approximate
12:54PM 40.5174 -80.3591 298° West  Level FlightAware Approximate
12:55PM 40.5320 -80.3956 298° West  Level FlightAware Approximate
12:56PM 40.5467 -80.4321 298° West  Level FlightAware Approximate
12:57PM 40.5613 -80.4686 298° West  Level FlightAware Approximate
12:58PM 40.5760 -80.5051 298° West  Level FlightAware Approximate
12:59PM 40.5906 -80.5417 298° West  Level FlightAware Approximate
01:00PM 40.6052 -80.5783 298° West  Level FlightAware Approximate
01:01PM 40.6198 -80.6149 298° West  Level FlightAware Approximate
01:02PM 40.6344 -80.6515 298° West  Level FlightAware Approximate
01:03PM 40.6489 -80.6881 298° West  Level FlightAware Approximate
01:04PM 40.6635 -80.7247 298° West  Level FlightAware Approximate
01:05PM 40.6781 -80.7613 298° West  Level FlightAware Approximate
01:06PM 40.6926 -80.7980 298° West  Level FlightAware Approximate
01:07PM 40.7069 -80.8348 297° West  Level FlightAware Approximate
01:08PM 40.7211 -80.8717 297° West  Level FlightAware Approximate
01:09PM 40.7352 -80.9087 297° West  Level FlightAware Approximate
01:10PM 40.7493 -80.9457 297° West  Level FlightAware Approximate
01:11PM 40.7634 -80.9827 297° West  Level FlightAware Approximate
01:12PM 40.7775 -81.0197 297° West  Level FlightAware Approximate
01:13PM 40.7916 -81.0567 297° West  Level FlightAware Approximate
01:14PM 40.8057 -81.0938 297° West  Level FlightAware Approximate
01:15PM 40.8197 -81.1308 297° West  Level FlightAware Approximate
01:16PM 40.8338 -81.1679 297° West  Level FlightAware Approximate
01:17PM 40.8478 -81.2050 297° West  Level FlightAware Approximate
01:18PM 40.8618 -81.2421 297° West  Level FlightAware Approximate
01:19PM 40.8758 -81.2792 297° West  Level FlightAware Approximate
01:20PM 40.8898 -81.3164 297° West  Level FlightAware Approximate
01:21PM 40.9038 -81.3535 296° West  Level FlightAware Approximate
01:22PM 40.9178 -81.3907 296° West  Level FlightAware Approximate
01:23PM 40.9316 -81.4276 296° West  Level FlightAware Approximate
01:24PM 40.9455 -81.4645 296° West  Level FlightAware Approximate
01:25PM 40.9593 -81.5015 296° West  Level FlightAware Approximate
01:25PM 40.9422 -81.3281 296° West 132 152 3,900  Level Cleveland Center
01:26PM 40.9731 -81.5385 296° West  Level FlightAware Approximate
01:27PM 40.9869 -81.5754 296° West  Level FlightAware Approximate
01:27PM 40.9606 -81.3969 289° West 126 145 3,800  Level Cleveland Center
01:28PM 41.0007 -81.6124 296° West  Level FlightAware Approximate
01:28PM 40.9686 -81.4328 287° West 120 138 3,900  Level Cleveland Center
01:28PM 40.9747 -81.4714 282° West 118 136 3,900  Level Cleveland Center
01:29PM 41.0145 -81.6494 296° West  Level FlightAware Approximate
01:29PM 40.9828 -81.5072 287° West 114 131 3,900  Level Cleveland Center
01:30PM 41.0288 -81.6877 296° West  Level FlightAware Approximate
01:31PM 40.9989 -81.5542 294° West 126 145 4,000  Level Cleveland Center
01:31PM 41.0429 -81.7260 296° West  Level FlightAware Approximate
01:31PM 41.0133 -81.5875 300° West 122 140 3,900  Level Cleveland Center
01:33PM 41.0336 -81.6456 295° West 121 139 4,000  Climbing Cleveland Center
01:34PM 41.0519 -81.6872 300° West 120 138 3,900 -120 Descending Cleveland Center
01:34PM 41.0581 -81.7147 286° West 127 146 3,900 60 Level Cleveland Center
01:36PM 41.0742 -81.7675 292° West 115 132 4,100 60 Climbing Cleveland Center
01:36PM 41.0842 -81.7953 296° West 114 131 4,100 -60 Level Cleveland Center
01:38PM 41.1044 -81.8536 295° West 128 147 4,000 -60 Descending Cleveland Center
01:38PM 41.1147 -81.8783 299° West 124 143 4,000 -60 Level Cleveland Center
01:40PM 41.1369 -81.9369 297° West 127 146 3,900 -60 Descending Cleveland Center
01:41PM 41.1531 -81.9811 296° West 129 148 3,900  Level Cleveland Center
01:42PM 41.1650 -82.0172 294° West 131 151 3,900 -60 Level Cleveland Center
01:43PM 41.1792 -82.0564 296° West 126 145 3,800  Descending Cleveland Center
01:44PM 41.1953 -82.0981 297° West 126 145 3,900  Climbing Cleveland Center
01:44PM 41.2072 -82.1314 295° West 123 142 3,900  Level Cleveland Center
01:46PM 41.2233 -82.1789 294° West 119 137 4,000  Climbing Cleveland Center
01:47PM 41.2311 -82.2203 284° West 124 143 3,900  Descending Cleveland Center
01:48PM 41.2492 -82.2650 298° West 129 148 4,000 -60 Climbing Cleveland Center
01:49PM 41.2653 -82.3097 296° West 124 143 3,800 -60 Descending Cleveland Center
01:50PM 41.2792 -82.3542 293° West 127 146 3,900  Climbing Cleveland Center
01:51PM 41.2911 -82.3933 292° West 128 147 3,900  Level Cleveland Center
01:52PM 41.3111 -82.4381 301° West 125 144 4,000  Climbing Cleveland Center
01:53PM 41.3231 -82.4825 290° West 130 150 3,900  Descending Cleveland Center
01:54PM 41.3369 -82.5189 297° West 129 148 4,000 -60 Climbing Cleveland Center
01:55PM 41.3508 -82.5608 294° West 130 150 3,800 -240 Descending Cleveland Center
01:56PM 41.3689 -82.6083 297° West 137 158 3,600 -300 Descending Cleveland Center
01:57PM 41.3803 -82.6586 287° West 136 157 3,200 -240 Descending Cleveland Center
01:58PM 41.3900 -82.7006 287° West 131 151 3,200  Level Cleveland Center
01:59PM 41.4036 -82.7564 288° West 126 145 3,200  Level Cleveland Center
02:00PM 41.4092 -82.7869 284° West 124 143 3,200  Level Cleveland Center
02:01PM 41.4167 -82.8369 281° West 123 142 3,300 120 Climbing Cleveland Center
02:02PM 41.4242 -82.8817 283° West 121 139 3,500 180 Climbing Cleveland Center
02:04PM 41.4505 -82.9455 299° West  Level FlightAware Approximate
02:11PM 41.5546 -83.1989 299° West  Level FlightAware Approximate
02:12PM 41.5694 -83.2352 299° West  Level FlightAware Approximate
02:13PM 41.5842 -83.2715 299° West  Level FlightAware Approximate
02:14PM 41.5990 -83.3078 299° West  Level FlightAware Approximate
02:15PM 41.6138 -83.3441 299° West  Level FlightAware Approximate
02:16PM 41.6285 -83.3804 299° West  Level FlightAware Approximate
02:17PM 41.6433 -83.4168 299° West  Level FlightAware Approximate
02:18PM 41.6570 -83.4542 294° West  Level FlightAware Approximate
02:19PM 41.6696 -83.4920 294° West  Level FlightAware Approximate
02:20PM 41.6822 -83.5298 294° West  Level FlightAware Approximate
02:21PM 41.6948 -83.5677 294° West  Level FlightAware Approximate
02:22PM 41.7101 -83.6035 304° West  Level FlightAware Approximate
02:23PM 41.7273 -83.6379 304° West  Level FlightAware Approximate
02:24PM 41.7333 -83.6500 304° West  Level FlightAware Approximate
02:25PM 41.7359 -83.6558 304° West  Level Estimated
02:26PM 41.7333 -83.6500 304° West  Level FlightAware Approximate
02:27PM 41.7359 -83.6558 304° West  Level Estimated